Strona główna
METAR-TAF:

METAR-TAF

Lotnisko :

Laconia Municipal Airport

Laconia, New Hampshire, Stany Zjednoczone

Szerokość geograficzna: 43-34N, Długość geograficzna: 071-25W, wysokość: 166 m

Aktualna obserwacja pogody

Raport powstał 6 minut temu, godzina 08:56 UTC
Cisza
Temperatura 14°C
Wilgotność 100%
Ciśnienie 1022 hPa
Widzialność: 16.1 km
Mało chmury na wysokości 400 ft

METAR: KLCI 200856Z AUTO 00000KT 10SM FEW004 14/14 A3018 RMK AO2 SLP234 T01440139 53001

czas: 05:02 (09:02 UTC)


TAF: brakujący

Obserwacja i prognoza pogody dla ponad 4000 lotnisk (raport METAR i TAF).

Dostępne stacje oznaczono żółtymi i czerwonymi punktami na mapie.

Najedź kursorem aby zobaczyć nazwę stacji.

Kliknij aby zobaczyć obserwacje i prognozy pogody.

Aby zmienić mapę: kliknij na zielony przycisk z czarnym krzyżykiem, aby powiększyć; na zielony przycisk z myślnikiem, aby pomniejszyć; na zielone strzałki, aby przejść do map sąsiednich.


METAR-TAF: